Startpagina
METAR-TAF:

METAR-TAF

Vliegvelden :

Luchthaven Tunis-Carthage

Tunis, Tunesië

breedte: 36-50N, lengte: 010-14E, hoogte: 3 m

Actueel weer

Dit bericht is 18 minuten geleden gemaakt, om 21:00 UTC
Wind 3 kt uit het noorden
Temperatuur 28°C
Vochtigheid 55%
Druk 1013 hPa
Zicht 10 km of meer
Weinig wolken op 4600 ft

METAR: DTTA 212100Z 35003KT 9999 FEW046 28/18 Q1013 NOSIG

Tijdstip: 22:18 (21:18 UTC)

Verwachting

Dit bericht is 4 uur en het 18 minuten geleden gemaakt, om 17:00 UTC
Verwachting geldig van 21 om 18 UTC tot 22 om 18 UTC
Wind 10 kt uit het noordnoordoosten
Zicht 10 km of meer
Weinig wolken op 4600 ft
Kans 30% :
Tijdelijke
van 21 om 19 UTC tot 21 om 22 UTC
Zicht: 4000 m
Weinig wolken op 2600 ft, Cumulonimbus.
onweer, regen

TAF: DTTA 211700Z 2118/2218 02010KT 9999 FEW046 PROB30 TEMPO 2119/2122 4000 TSRA FEW026CB

Waarnemingen en weersverwachtingen van meer dan 4000 vliegvelden (METAR en TAF).

De beschikbare stations zijn de gele en rode punten op de kaart.

Ga met uw muis naar het station om de naam te zien.

Klik dan om waarnemingen en weersverwachtingen te zien.

kaart wijzigen: klik op de groene knoppen met een zwart kruis om in te zoomen, op de groene knop met een streepje om uit te zoomen of op de groene pijlen voor aangrenzende kaarten.


METAR-TAF: